Demorest, Georgia
Current Conditions -  °F | °C
As of 5:55 PM on Tuesday 27 Jan 2015 (Local Time) from KTOC Reporting Station
Clear Clear  
Wind Chill: 35°   Ceiling: Unl
Heat Index: 42°   Visibility: 10mi
Dew Point: 28°   Wind: 12mph
Humidity: 57%   Direction: 300°WNW
Pressure: 29.96"   Gusts: 17mph
Location:  34.57°N, 83.55°W
Report Text: KTOC 272255Z AUTO 30010G15KT 10SM CLR 06/M02 A2996 RMK AO2 T00551025
Loading
Personal Weather Stations






























Interactive Weather Map New forecast layout! Learn more

10-Day Weather Forecast

Advertisements
Track Severe Weather on mobile